Time;durP1;ratioP1;P1;durP2;ratioP2;P2;SDS_P1;SDS_P2;PMS_P1;PMS_P2;Temp;Humidity;BMP_temperature;BMP_pressure;BME280_temperature;BME280_humidity;BME280_pressure;Samples;Min_cycle;Max_cycle;Signal;HPM_P1;HPM_P2
2023/02/02 00:02:12;;;;;;;6.07;2.13;;;;;;;;;;5108719;28;20055;-74
2023/02/02 00:04:43;;;;;;;7.97;2.60;;;;;;;;;;5118478;27;20531;-76
2023/02/02 00:07:13;;;;;;;3.38;2.30;;;;;;;;;;5116122;27;20517;-76
2023/02/02 00:09:44;;;;;;;3.15;2.08;;;;;;;;;;5115206;27;20055;-75
2023/02/02 00:12:15;;;;;;;6.13;2.25;;;;;;;;;;5115381;27;20045;-76
2023/02/02 00:14:45;;;;;;;4.97;1.98;;;;;;;;;;5115603;27;20117;-76
2023/02/02 00:17:16;;;;;;;4.95;2.15;;;;;;;;;;5124638;27;20066;-76
2023/02/02 00:19:47;;;;;;;6.20;3.08;;;;;;;;;;5128519;27;20051;-76
2023/02/02 00:22:18;;;;;;;3.90;1.95;;;;;;;;;;5128413;27;20054;-75
2023/02/02 00:24:47;;;;;;;4.78;2.30;;;;;;;;;;5128360;27;20050;-75
2023/02/02 00:27:18;;;;;;;3.45;2.38;;;;;;;;;;5120446;27;20053;-75
2023/02/02 00:29:52;;;;;;;3.17;1.83;;;;;;;;;;5118433;27;20044;-79
2023/02/02 00:32:23;;;;;;;4.25;2.50;;;;;;;;;;5115751;27;20048;-75
2023/02/02 00:34:54;;;;;;;5.35;2.70;;;;;;;;;;5116660;27;20481;-74
2023/02/02 00:37:25;;;;;;;5.72;2.22;;;;;;;;;;5093341;28;20044;-73
2023/02/02 00:39:56;;;;;;;3.65;2.72;;;;;;;;;;5110073;27;20491;-74
2023/02/02 00:42:28;;;;;;;2.83;2.08;;;;;;;;;;5115437;27;20043;-75
2023/02/02 00:45:17;;;;;;;5.05;2.33;;;;;;;;;;5113850;27;20433;-75
2023/02/02 00:47:48;;;;;;;5.38;2.33;;;;;;;;;;5107866;28;20048;-74
2023/02/02 00:50:20;;;;;;;3.20;2.22;;;;;;;;;;5107942;28;20044;-75
2023/02/02 00:52:51;;;;;;;6.95;2.38;;;;;;;;;;5108435;28;20043;-74
2023/02/02 00:55:21;;;;;;;4.32;2.22;;;;;;;;;;5106020;28;20058;-75
2023/02/02 00:57:52;;;;;;;5.30;2.33;;;;;;;;;;5106354;28;20031;-75
2023/02/02 01:00:26;;;;;;;5.68;2.28;;;;;;;;;;5107382;28;20044;-75
2023/02/02 01:03:03;;;;;;;8.25;2.80;;;;;;;;;;5107012;28;20055;-76
2023/02/02 01:05:34;;;;;;;4.03;2.35;;;;;;;;;;5106485;28;20054;-75
2023/02/02 01:08:05;;;;;;;4.20;2.25;;;;;;;;;;5106442;28;20043;-75
2023/02/02 01:10:36;;;;;;;6.35;2.55;;;;;;;;;;5106750;28;20051;-75
2023/02/02 01:13:08;;;;;;;5.45;2.25;;;;;;;;;;5108114;28;20710;-75
2023/02/02 01:15:39;;;;;;;9.52;2.67;;;;;;;;;;5107129;28;20502;-74
2023/02/02 01:18:10;;;;;;;9.50;2.97;;;;;;;;;;5106105;28;20055;-75
2023/02/02 01:20:42;;;;;;;3.75;2.60;;;;;;;;;;5107077;28;20406;-75
2023/02/02 01:23:13;;;;;;;6.05;2.63;;;;;;;;;;5107046;28;20043;-76
2023/02/02 01:25:44;;;;;;;4.85;2.58;;;;;;;;;;5107057;28;20054;-75
2023/02/02 01:28:15;;;;;;;5.07;2.70;;;;;;;;;;5106043;28;20058;-75
2023/02/02 01:30:46;;;;;;;7.20;2.65;;;;;;;;;;5105287;28;20054;-75
2023/02/02 01:33:18;;;;;;;7.88;2.83;;;;;;;;;;5104621;28;20055;-76
2023/02/02 01:35:54;;;;;;;3.60;2.90;;;;;;;;;;5106597;28;20052;-75
2023/02/02 01:38:26;;;;;;;5.65;2.95;;;;;;;;;;5106959;28;20048;-74
2023/02/02 01:40:57;;;;;;;5.43;3.13;;;;;;;;;;5109600;27;20043;-74
2023/02/02 01:43:44;;;;;;;6.93;3.40;;;;;;;;;;5117543;27;20043;-72
2023/02/02 01:46:16;;;;;;;3.95;2.85;;;;;;;;;;5111838;27;20048;-76
2023/02/02 01:48:52;;;;;;;4.72;2.83;;;;;;;;;;5115892;27;20039;-76
2023/02/02 01:51:30;;;;;;;8.52;2.90;;;;;;;;;;5115841;27;20054;-75
2023/02/02 01:54:01;;;;;;;6.93;2.35;;;;;;;;;;5086704;28;20044;-76
2023/02/02 01:56:36;;;;;;;7.72;3.30;;;;;;;;;;5085115;28;20051;-75
2023/02/02 01:59:08;;;;;;;3.75;2.55;;;;;;;;;;5068382;28;20063;-74
2023/02/02 02:01:39;;;;;;;3.83;2.85;;;;;;;;;;5086652;28;20537;-75
2023/02/02 02:04:10;;;;;;;4.97;2.83;;;;;;;;;;5089323;28;20052;-77
2023/02/02 02:06:41;;;;;;;5.30;2.88;;;;;;;;;;5088696;28;21164;-75
2023/02/02 02:09:11;;;;;;;5.30;2.65;;;;;;;;;;5090929;28;20048;-72
2023/02/02 02:11:41;;;;;;;5.53;3.00;;;;;;;;;;5090519;28;20051;-73
2023/02/02 02:17:25;;;;;;;9.65;3.17;;;;;;;;;;5089194;28;20052;-76
2023/02/02 02:26:46;;;;;;;8.05;2.83;;;;;;;;;;5088254;28;20044;-74
2023/02/02 02:29:23;;;;;;;5.75;2.88;;;;;;;;;;5089817;28;20048;-76
2023/02/02 02:32:34;;;;;;;5.03;2.85;;;;;;;;;;5090211;28;20052;-76
2023/02/02 02:35:28;;;;;;;7.43;3.08;;;;;;;;;;5090125;28;20050;-76
2023/02/02 02:38:18;;;;;;;4.90;2.85;;;;;;;;;;5088526;28;20125;-76
2023/02/02 02:40:57;;;;;;;12.35;3.10;;;;;;;;;;5088455;28;20047;-76
2023/02/02 02:43:32;;;;;;;5.95;2.80;;;;;;;;;;5088731;28;20410;-75
2023/02/02 02:46:04;;;;;;;5.57;2.75;;;;;;;;;;5089885;28;20048;-76
2023/02/02 02:48:35;;;;;;;5.35;2.58;;;;;;;;;;5087483;28;20075;-75
2023/02/02 02:51:43;;;;;;;6.00;2.85;;;;;;;;;;5087832;28;20056;-75
2023/02/02 02:54:37;;;;;;;4.63;2.50;;;;;;;;;;5087644;28;20052;-77
2023/02/02 02:57:17;;;;;;;6.72;2.97;;;;;;;;;;5087916;28;20052;-75
2023/02/02 02:59:58;;;;;;;4.50;2.70;;;;;;;;;;5089845;28;20040;-76
2023/02/02 03:03:05;;;;;;;3.50;2.60;;;;;;;;;;5090031;28;20522;-75
2023/02/02 03:05:59;;;;;;;3.90;2.58;;;;;;;;;;5089996;28;20063;-77
2023/02/02 03:08:40;;;;;;;4.47;2.58;;;;;;;;;;5088491;28;20059;-76
2023/02/02 03:11:13;;;;;;;6.53;2.45;;;;;;;;;;5088892;28;20048;-75
2023/02/02 03:13:44;;;;;;;6.28;2.90;;;;;;;;;;5089053;28;20048;-77
2023/02/02 03:16:16;;;;;;;4.65;2.72;;;;;;;;;;5089137;28;20043;-76
2023/02/02 03:18:47;;;;;;;5.97;3.03;;;;;;;;;;5089526;28;20052;-76
2023/02/02 03:21:19;;;;;;;6.93;3.13;;;;;;;;;;5089603;28;20795;-76
2023/02/02 03:23:49;;;;;;;6.30;2.95;;;;;;;;;;5089419;28;20032;-75
2023/02/02 03:26:20;;;;;;;6.30;3.05;;;;;;;;;;5088239;28;20055;-77
2023/02/02 03:28:54;;;;;;;6.32;2.67;;;;;;;;;;5088994;28;20055;-76
2023/02/02 03:31:27;;;;;;;7.30;2.78;;;;;;;;;;5089373;28;20047;-76
2023/02/02 03:33:58;;;;;;;6.32;3.15;;;;;;;;;;5088865;28;20392;-76
2023/02/02 03:36:28;;;;;;;6.03;2.53;;;;;;;;;;5088795;28;20055;-77
2023/02/02 03:38:58;;;;;;;3.65;2.65;;;;;;;;;;5088785;28;20044;-76
2023/02/02 03:41:29;;;;;;;5.00;2.58;;;;;;;;;;5088756;28;20048;-77
2023/02/02 03:43:59;;;;;;;5.15;3.13;;;;;;;;;;5089392;28;20398;-76
2023/02/02 03:46:29;;;;;;;7.05;2.97;;;;;;;;;;5088729;28;20044;-76
2023/02/02 03:49:00;;;;;;;6.32;3.00;;;;;;;;;;5088516;28;20066;-76
2023/02/02 03:51:30;;;;;;;6.15;3.05;;;;;;;;;;5088152;28;20221;-77
2023/02/02 03:54:01;;;;;;;5.07;2.90;;;;;;;;;;5087319;28;20052;-77
2023/02/02 03:56:32;;;;;;;8.60;3.03;;;;;;;;;;5088439;28;20043;-77
2023/02/02 03:59:02;;;;;;;4.60;2.85;;;;;;;;;;5088920;28;20063;-76
2023/02/02 04:01:33;;;;;;;4.85;2.90;;;;;;;;;;5089046;28;20510;-76
2023/02/02 04:04:03;;;;;;;6.10;3.13;;;;;;;;;;5088549;28;20047;-74
2023/02/02 04:06:35;;;;;;;6.93;3.00;;;;;;;;;;5088760;28;21190;-74
2023/02/02 04:09:05;;;;;;;3.95;2.78;;;;;;;;;;5087325;28;20422;-76
2023/02/02 04:11:35;;;;;;;5.57;3.00;;;;;;;;;;5088455;28;20632;-77
2023/02/02 04:14:08;;;;;;;9.38;3.20;;;;;;;;;;5086499;28;20430;-76
2023/02/02 04:16:40;;;;;;;3.90;2.60;;;;;;;;;;5088083;28;20051;-76
2023/02/02 04:19:13;;;;;;;5.57;3.00;;;;;;;;;;5088049;28;20058;-75
2023/02/02 04:21:44;;;;;;;11.60;3.05;;;;;;;;;;5087291;28;20055;-75
2023/02/02 04:24:14;;;;;;;15.35;3.45;;;;;;;;;;5088023;28;20048;-75
2023/02/02 04:26:46;;;;;;;6.80;3.08;;;;;;;;;;5087714;28;20048;-76
2023/02/02 04:29:17;;;;;;;7.32;3.30;;;;;;;;;;5088310;28;20136;-76
2023/02/02 04:31:47;;;;;;;5.35;2.75;;;;;;;;;;5088739;28;20048;-76
2023/02/02 04:34:17;;;;;;;9.05;3.10;;;;;;;;;;5086736;28;20055;-76
2023/02/02 04:36:48;;;;;;;6.97;3.33;;;;;;;;;;5087781;28;20059;-76
2023/02/02 04:39:20;;;;;;;7.05;3.08;;;;;;;;;;5087716;28;20051;-75
2023/02/02 04:41:51;;;;;;;5.43;3.33;;;;;;;;;;5087747;28;20518;-77
2023/02/02 04:44:22;;;;;;;4.30;3.40;;;;;;;;;;5087312;28;20056;-76
2023/02/02 04:46:52;;;;;;;6.70;3.13;;;;;;;;;;5087698;28;20354;-75
2023/02/02 04:49:23;;;;;;;18.38;3.15;;;;;;;;;;5087251;28;20529;-75
2023/02/02 04:51:53;;;;;;;7.60;2.85;;;;;;;;;;5087760;28;20048;-76
2023/02/02 04:54:24;;;;;;;4.75;3.25;;;;;;;;;;5085954;28;20055;-75
2023/02/02 04:56:53;;;;;;;5.88;3.35;;;;;;;;;;5086661;28;20067;-76
2023/02/02 04:59:24;;;;;;;8.30;3.40;;;;;;;;;;5087167;28;20056;-75
2023/02/02 05:01:54;;;;;;;7.88;3.38;;;;;;;;;;5087057;28;20048;-75
2023/02/02 05:04:26;;;;;;;6.85;3.30;;;;;;;;;;5087486;28;20052;-75
2023/02/02 05:06:57;;;;;;;6.57;3.50;;;;;;;;;;5086524;28;20063;-75
2023/02/02 05:09:27;;;;;;;6.07;3.38;;;;;;;;;;5087073;28;20143;-75
2023/02/02 05:11:58;;;;;;;6.43;3.13;;;;;;;;;;5087038;28;21173;-76
2023/02/02 05:14:28;;;;;;;6.18;2.80;;;;;;;;;;5087372;28;20044;-75
2023/02/02 05:16:59;;;;;;;6.05;3.30;;;;;;;;;;5086817;28;20051;-76
2023/02/02 05:19:29;;;;;;;5.25;3.00;;;;;;;;;;5087517;28;20056;-76
2023/02/02 05:21:59;;;;;;;5.97;3.05;;;;;;;;;;5085522;28;20055;-75
2023/02/02 05:24:32;;;;;;;4.80;3.70;;;;;;;;;;5086872;28;20506;-74
2023/02/02 05:27:03;;;;;;;5.45;2.75;;;;;;;;;;5086458;28;20047;-75
2023/02/02 05:29:33;;;;;;;6.38;3.50;;;;;;;;;;5086846;28;20048;-75
2023/02/02 05:32:03;;;;;;;5.30;3.25;;;;;;;;;;5087191;28;20518;-75
2023/02/02 05:34:34;;;;;;;6.38;3.25;;;;;;;;;;5086156;28;20540;-75
2023/02/02 05:37:05;;;;;;;4.75;3.58;;;;;;;;;;5086214;28;20040;-75
2023/02/02 05:39:36;;;;;;;7.20;3.72;;;;;;;;;;5087063;28;20067;-76
2023/02/02 05:42:05;;;;;;;9.05;3.22;;;;;;;;;;5085269;28;20044;-76
2023/02/02 05:44:37;;;;;;;4.38;2.83;;;;;;;;;;5086960;28;20063;-76
2023/02/02 05:47:07;;;;;;;5.88;3.47;;;;;;;;;;5086702;28;20040;-75
2023/02/02 05:49:39;;;;;;;14.45;3.42;;;;;;;;;;5086294;28;20071;-75
2023/02/02 05:52:14;;;;;;;9.98;3.85;;;;;;;;;;5086702;28;20525;-76
2023/02/02 05:54:44;;;;;;;;;;;;;;;;;;5087242;28;20055;-75
2023/02/02 05:57:14;;;;;;;5.18;3.25;;;;;;;;;;5086158;28;19919;-76
2023/02/02 05:59:46;;;;;;;4.93;3.30;;;;;;;;;;5087070;28;20052;-76
2023/02/02 06:02:16;;;;;;;5.22;3.17;;;;;;;;;;5086174;28;20479;-75
2023/02/02 06:04:47;;;;;;;4.22;2.95;;;;;;;;;;5086160;28;20157;-75
2023/02/02 06:07:18;;;;;;;10.85;2.97;;;;;;;;;;5086366;28;20079;-75
2023/02/02 06:09:48;;;;;;;5.13;2.70;;;;;;;;;;5086052;28;20056;-76
2023/02/02 06:12:18;;;;;;;5.10;2.78;;;;;;;;;;5086965;28;20044;-76
2023/02/02 06:14:48;;;;;;;8.32;3.28;;;;;;;;;;5086626;28;20388;-74
2023/02/02 06:17:18;;;;;;;6.65;3.38;;;;;;;;;;5086534;28;20044;-75
2023/02/02 06:19:49;;;;;;;7.22;3.60;;;;;;;;;;5084898;28;20060;-75
2023/02/02 06:22:20;;;;;;;5.13;3.60;;;;;;;;;;5086084;28;20060;-74
2023/02/02 06:24:52;;;;;;;5.43;3.42;;;;;;;;;;5085529;28;20438;-76
2023/02/02 06:27:22;;;;;;;6.43;3.53;;;;;;;;;;5086707;28;20040;-75
2023/02/02 06:29:52;;;;;;;3.72;3.05;;;;;;;;;;5086055;28;20052;-76
2023/02/02 06:32:24;;;;;;;7.88;3.38;;;;;;;;;;5086534;28;20047;-76
2023/02/02 06:34:54;;;;;;;7.50;3.03;;;;;;;;;;5086034;28;20040;-74
2023/02/02 06:37:24;;;;;;;6.20;3.00;;;;;;;;;;5085990;28;20051;-75
2023/02/02 06:39:57;;;;;;;5.65;3.10;;;;;;;;;;5086121;28;20063;-75
2023/02/02 06:42:29;;;;;;;4.63;3.20;;;;;;;;;;5086337;28;20048;-75
2023/02/02 06:45:03;;;;;;;5.05;2.75;;;;;;;;;;5086075;28;20499;-75
2023/02/02 06:47:33;;;;;;;8.43;3.50;;;;;;;;;;5087109;28;20048;-75
2023/02/02 06:50:05;;;;;;;4.20;2.80;;;;;;;;;;5088947;28;20048;-75
2023/02/02 06:52:35;;;;;;;5.07;3.30;;;;;;;;;;5090315;28;20043;-74
2023/02/02 06:55:06;;;;;;;6.72;3.30;;;;;;;;;;5089709;28;20059;-76
2023/02/02 06:57:36;;;;;;;5.45;3.45;;;;;;;;;;5089951;28;20122;-75
2023/02/02 07:00:06;;;;;;;5.15;3.53;;;;;;;;;;5089975;28;20502;-76
2023/02/02 07:02:38;;;;;;;5.35;3.72;;;;;;;;;;5089901;28;20044;-75
2023/02/02 07:05:09;;;;;;;5.18;3.80;;;;;;;;;;5089723;28;20043;-76
2023/02/02 07:07:39;;;;;;;5.22;3.22;;;;;;;;;;5090075;28;20048;-76
2023/02/02 07:10:10;;;;;;;5.35;3.20;;;;;;;;;;5089750;28;20415;-76
2023/02/02 07:13:01;;;;;;;7.28;3.35;;;;;;;;;;5089062;28;20059;-75
2023/02/02 07:15:34;;;;;;;6.60;3.67;;;;;;;;;;5090403;28;20048;-76
2023/02/02 07:18:05;;;;;;;11.70;4.72;;;;;;;;;;5088360;28;20047;-75
2023/02/02 07:20:35;;;;;;;10.93;4.05;;;;;;;;;;5089089;28;20063;-74
2023/02/02 07:23:06;;;;;;;8.05;3.90;;;;;;;;;;5089279;28;20498;-75
2023/02/02 07:25:37;;;;;;;7.82;3.63;;;;;;;;;;5089894;28;20080;-75
2023/02/02 07:28:07;;;;;;;6.45;3.55;;;;;;;;;;5089138;28;20044;-75
2023/02/02 07:30:37;;;;;;;6.97;3.58;;;;;;;;;;5089033;28;20051;-77
2023/02/02 07:33:08;;;;;;;5.85;3.35;;;;;;;;;;5088150;28;20048;-75
2023/02/02 07:35:39;;;;;;;7.05;3.40;;;;;;;;;;5089302;28;20052;-75
2023/02/02 07:38:11;;;;;;;5.05;3.30;;;;;;;;;;5088695;28;20056;-75
2023/02/02 07:40:41;;;;;;;6.97;3.17;;;;;;;;;;5089036;28;20044;-75
2023/02/02 07:43:11;;;;;;;9.73;3.83;;;;;;;;;;5088585;28;20048;-74
2023/02/02 07:45:48;;;;;;;5.60;3.60;;;;;;;;;;5087630;28;20063;-75
2023/02/02 07:48:19;;;;;;;7.95;4.10;;;;;;;;;;5089065;28;20514;-76
2023/02/02 07:50:49;;;;;;;6.97;3.85;;;;;;;;;;5088611;28;20056;-74
2023/02/02 07:53:20;;;;;;;7.30;4.43;;;;;;;;;;5089086;28;20048;-74
2023/02/02 07:55:51;;;;;;;8.60;4.13;;;;;;;;;;5089194;28;20044;-74
2023/02/02 07:58:22;;;;;;;5.05;3.78;;;;;;;;;;5088250;28;20043;-76
2023/02/02 08:00:53;;;;;;;7.32;3.67;;;;;;;;;;5085662;28;20514;-75
2023/02/02 08:03:23;;;;;;;6.07;3.53;;;;;;;;;;5088292;28;20044;-76
2023/02/02 08:05:56;;;;;;;7.22;3.95;;;;;;;;;;5088357;28;20044;-75
2023/02/02 08:08:27;;;;;;;15.52;4.22;;;;;;;;;;5088735;28;20048;-75
2023/02/02 08:10:58;;;;;;;6.28;3.65;;;;;;;;;;5087884;28;20054;-74
2023/02/02 08:13:27;;;;;;;9.95;4.03;;;;;;;;;;5088414;28;20047;-74
2023/02/02 08:15:58;;;;;;;10.52;4.55;;;;;;;;;;5088502;28;20055;-76
2023/02/02 08:18:29;;;;;;;8.80;4.47;;;;;;;;;;5088812;28;20044;-76
2023/02/02 08:21:01;;;;;;;6.88;4.28;;;;;;;;;;5088518;28;20043;-74
2023/02/02 08:23:31;;;;;;;8.18;4.28;;;;;;;;;;5087609;28;20044;-75
2023/02/02 08:26:15;;;;;;;6.68;4.20;;;;;;;;;;5087932;28;20044;-75
2023/02/02 08:28:48;;;;;;;8.38;3.97;;;;;;;;;;5087962;28;20040;-75
2023/02/02 08:31:45;;;;;;;9.13;3.88;;;;;;;;;;5087922;28;20056;-75
2023/02/02 08:34:15;;;;;;;6.10;3.70;;;;;;;;;;5085789;28;20060;-77
2023/02/02 08:36:45;;;;;;;7.05;3.40;;;;;;;;;;5086312;28;20412;-76
2023/02/02 08:39:17;;;;;;;5.25;3.03;;;;;;;;;;5088153;28;20044;-75
2023/02/02 08:41:48;;;;;;;5.68;3.38;;;;;;;;;;5088557;28;20043;-77
2023/02/02 08:44:18;;;;;;;4.13;3.60;;;;;;;;;;5088127;28;20044;-76
2023/02/02 08:47:16;;;;;;;9.93;3.38;;;;;;;;;;5087816;28;20044;-76
2023/02/02 08:49:46;;;;;;;6.43;3.70;;;;;;;;;;5087867;28;20040;-75
2023/02/02 08:52:16;;;;;;;4.75;3.67;;;;;;;;;;5087459;28;20075;-76
2023/02/02 08:54:46;;;;;;;5.65;3.55;;;;;;;;;;5087669;28;20055;-76
2023/02/02 08:57:17;;;;;;;6.07;3.20;;;;;;;;;;5089358;28;20048;-75
2023/02/02 08:59:48;;;;;;;4.93;3.40;;;;;;;;;;5087998;28;20657;-77
2023/02/02 09:02:18;;;;;;;6.05;3.50;;;;;;;;;;5087823;28;20048;-77
2023/02/02 09:04:48;;;;;;;5.78;3.88;;;;;;;;;;5087834;28;20051;-75
2023/02/02 09:07:18;;;;;;;6.10;3.50;;;;;;;;;;5087276;28;20048;-76
2023/02/02 09:09:51;;;;;;;6.72;3.38;;;;;;;;;;5087089;28;20044;-76
2023/02/02 09:12:24;;;;;;;7.38;3.63;;;;;;;;;;5086878;28;20044;-77
2023/02/02 09:14:54;;;;;;;5.55;3.60;;;;;;;;;;5087221;28;20047;-76
2023/02/02 09:17:24;;;;;;;6.82;3.63;;;;;;;;;;5087049;28;20036;-75
2023/02/02 09:19:54;;;;;;;5.55;3.30;;;;;;;;;;5086780;28;20040;-75
2023/02/02 09:22:25;;;;;;;4.30;3.45;;;;;;;;;;5087066;28;20044;-76
2023/02/02 09:24:56;;;;;;;8.95;3.35;;;;;;;;;;5088141;28;20368;-77
2023/02/02 09:27:26;;;;;;;6.28;3.45;;;;;;;;;;5086726;28;20047;-77
2023/02/02 09:29:57;;;;;;;5.95;3.35;;;;;;;;;;5086650;28;20051;-77
2023/02/02 09:32:28;;;;;;;6.38;3.17;;;;;;;;;;5085692;28;20066;-75
2023/02/02 09:34:59;;;;;;;6.00;3.58;;;;;;;;;;5087114;28;20047;-75
2023/02/02 09:37:32;;;;;;;11.23;3.60;;;;;;;;;;5087030;28;20060;-78
2023/02/02 09:40:03;;;;;;;11.35;5.47;;;;;;;;;;5087191;28;20055;-76
2023/02/02 09:42:51;;;;;;;9.93;4.28;;;;;;;;;;5085283;28;20052;-76
2023/02/02 09:45:38;;;;;;;11.93;4.65;;;;;;;;;;5085990;28;20059;-77
2023/02/02 09:48:27;;;;;;;9.73;4.47;;;;;;;;;;5085276;28;20051;-76
2023/02/02 09:51:04;;;;;;;9.02;4.53;;;;;;;;;;5086791;28;20529;-77
2023/02/02 09:53:50;;;;;;;7.88;4.88;;;;;;;;;;5085081;28;20403;-76
2023/02/02 09:56:32;;;;;;;10.80;4.88;;;;;;;;;;5086879;28;20055;-76
2023/02/02 09:59:06;;;;;;;14.60;5.38;;;;;;;;;;5086320;28;20820;-76
2023/02/02 10:01:55;;;;;;;15.20;5.65;;;;;;;;;;5108467;28;20066;-77
2023/02/02 10:04:36;;;;;;;10.93;6.22;;;;;;;;;;5115529;28;20118;-76
2023/02/02 10:07:19;;;;;;;16.00;5.95;;;;;;;;;;5113732;28;20044;-77
2023/02/02 10:10:02;;;;;;;12.65;6.25;;;;;;;;;;5109137;28;20087;-77
2023/02/02 10:12:53;;;;;;;13.98;5.28;;;;;;;;;;5107050;28;20046;-77
2023/02/02 10:15:42;;;;;;;6.40;4.20;;;;;;;;;;5106691;28;20050;-78
2023/02/02 10:18:26;;;;;;;11.48;5.50;;;;;;;;;;5106762;28;20039;-78
2023/02/02 10:21:03;;;;;;;13.35;6.22;;;;;;;;;;5107020;28;20060;-76
2023/02/02 10:23:40;;;;;;;9.30;5.30;;;;;;;;;;5106649;28;20047;-76
2023/02/02 10:26:21;;;;;;;15.73;4.53;;;;;;;;;;5110998;28;20063;-77
2023/02/02 10:29:04;;;;;;;10.70;4.65;;;;;;;;;;5110726;28;20055;-77
2023/02/02 10:32:11;;;;;;;19.58;4.10;;;;;;;;;;5110880;28;20051;-77
2023/02/02 10:34:49;;;;;;;8.05;4.00;;;;;;;;;;5110358;28;20047;-78
2023/02/02 10:37:53;;;;;;;10.68;4.10;;;;;;;;;;5109231;28;20051;-78
2023/02/02 10:40:57;;;;;;;6.57;3.25;;;;;;;;;;5110636;28;20051;-78
2023/02/02 10:43:45;;;;;;;10.68;3.30;;;;;;;;;;5110389;28;20039;-80
2023/02/02 10:46:38;;;;;;;9.18;3.33;;;;;;;;;;5109950;28;20410;-77
2023/02/02 10:49:12;;;;;;;10.48;2.85;;;;;;;;;;5110644;28;20043;-77
2023/02/02 10:52:12;;;;;;;10.05;2.92;;;;;;;;;;5110377;28;20051;-76
2023/02/02 10:55:19;;;;;;;12.98;2.53;;;;;;;;;;5110349;28;20051;-77
2023/02/02 10:58:05;;;;;;;;;;;;;;;;;;5110817;28;20498;-78
2023/02/02 11:00:45;;;;;;;4.68;2.53;;;;;;;;;;5110541;28;20416;-78
2023/02/02 11:03:19;;;;;;;7.25;2.83;;;;;;;;;;5110154;28;20055;-77
2023/02/02 11:08:47;;;;;;;5.47;2.80;;;;;;;;;;5110726;28;20051;-77
2023/02/02 11:11:32;;;;;;;7.63;2.78;;;;;;;;;;5110090;28;20040;-77
2023/02/02 11:14:08;;;;;;;4.50;2.50;;;;;;;;;;5110197;28;20040;-76
2023/02/02 11:16:41;;;;;;;4.65;2.33;;;;;;;;;;5109978;28;20054;-75
2023/02/02 11:19:26;;;;;;;6.35;2.67;;;;;;;;;;5109928;28;20506;-76
2023/02/02 11:22:05;;;;;;;5.68;2.58;;;;;;;;;;5107931;28;20055;-75
2023/02/02 11:24:48;;;;;;;6.57;2.22;;;;;;;;;;5110170;28;20047;-77
2023/02/02 11:27:42;;;;;;;4.20;2.28;;;;;;;;;;5109928;28;20043;-79
2023/02/02 11:30:21;;;;;;;;;;;;;;;;;;5102205;28;20055;-76
2023/02/02 11:32:54;;;;;;;5.05;2.22;;;;;;;;;;5107792;28;19924;-78
2023/02/02 11:35:31;;;;;;;9.45;2.55;;;;;;;;;;5108202;28;20058;-82
2023/02/02 11:38:18;;;;;;;3.55;2.08;;;;;;;;;;5109626;28;20489;-76
2023/02/02 11:41:02;;;;;;;10.23;2.80;;;;;;;;;;5110092;28;20062;-76
2023/02/02 11:44:05;;;;;;;5.75;2.60;;;;;;;;;;5108974;28;20048;-75
2023/02/02 11:46:38;;;;;;;6.43;2.15;;;;;;;;;;5109517;28;20044;-78
2023/02/02 11:49:18;;;;;;;7.68;2.65;;;;;;;;;;5109864;28;20399;-76
2023/02/02 11:52:03;;;;;;;10.25;2.22;;;;;;;;;;5107955;28;20522;-74
2023/02/02 11:54:37;;;;;;;9.77;2.17;;;;;;;;;;5109699;28;20043;-78
2023/02/02 11:57:17;;;;;;;4.80;2.33;;;;;;;;;;5109288;28;20047;-77
2023/02/02 11:59:50;;;;;;;3.92;2.08;;;;;;;;;;5109264;28;20486;-77
2023/02/02 12:02:27;;;;;;;3.78;2.40;;;;;;;;;;5109268;28;20047;-76
2023/02/02 12:05:10;;;;;;;8.07;2.35;;;;;;;;;;5109357;28;20044;-78
2023/02/02 12:07:43;;;;;;;6.65;2.08;;;;;;;;;;5109018;28;20406;-78
2023/02/02 12:10:25;;;;;;;4.28;1.95;;;;;;;;;;5108861;28;20048;-81
2023/02/02 12:13:09;;;;;;;8.02;2.33;;;;;;;;;;5109106;28;20410;-78
2023/02/02 12:15:51;;;;;;;4.47;2.28;;;;;;;;;;5108725;28;20058;-77
2023/02/02 12:18:58;;;;;;;8.18;2.72;;;;;;;;;;5108770;28;20055;-76
2023/02/02 12:21:43;;;;;;;5.93;2.50;;;;;;;;;;5108973;28;20398;-80
2023/02/02 12:24:30;;;;;;;7.20;2.40;;;;;;;;;;5109553;28;20047;-77
2023/02/02 12:27:35;;;;;;;8.80;2.47;;;;;;;;;;5108663;28;20048;-76
2023/02/02 12:30:26;;;;;;;7.35;2.15;;;;;;;;;;5108794;28;20059;-78
2023/02/02 12:33:28;;;;;;;2.70;1.80;;;;;;;;;;5108148;28;20074;-75
2023/02/02 12:36:17;;;;;;;4.40;1.70;;;;;;;;;;5038319;28;20056;-77
2023/02/02 12:39:10;;;;;;;7.65;2.25;;;;;;;;;;5108291;28;20047;-75
2023/02/02 12:42:03;;;;;;;2.50;1.92;;;;;;;;;;5109204;28;20055;-78
2023/02/02 12:44:42;;;;;;;5.72;3.25;;;;;;;;;;5108277;28;20043;-77
2023/02/02 12:47:29;;;;;;;2.78;1.95;;;;;;;;;;5108336;28;20047;-77
2023/02/02 12:50:11;;;;;;;12.57;3.10;;;;;;;;;;5108801;28;20090;-77
2023/02/02 12:52:50;;;;;;;3.30;1.80;;;;;;;;;;5108098;28;20051;-79
2023/02/02 12:55:30;;;;;;;3.90;1.55;;;;;;;;;;5108317;28;20429;-77
2023/02/02 12:58:16;;;;;;;6.60;1.67;;;;;;;;;;5107970;28;20494;-75
2023/02/02 13:00:55;;;;;;;3.92;1.77;;;;;;;;;;5108010;28;21178;-77
2023/02/02 13:03:47;;;;;;;4.78;1.92;;;;;;;;;;5108132;28;20039;-79
2023/02/02 13:06:36;;;;;;;4.03;1.88;;;;;;;;;;5107559;28;20043;-77
2023/02/02 13:09:33;;;;;;;3.90;1.95;;;;;;;;;;5108076;28;20040;-79
2023/02/02 13:12:12;;;;;;;3.08;1.73;;;;;;;;;;5107964;28;20048;-80
2023/02/02 13:14:53;;;;;;;5.07;1.75;;;;;;;;;;5108220;28;20050;-77
2023/02/02 13:17:48;;;;;;;6.25;1.73;;;;;;;;;;5106309;28;20131;-75
2023/02/02 13:20:45;;;;;;;3.45;1.63;;;;;;;;;;5107774;28;20051;-76
2023/02/02 13:23:16;;;;;;;3.92;1.83;;;;;;;;;;5107256;28;20062;-76
2023/02/02 13:26:06;;;;;;;3.85;1.70;;;;;;;;;;5107073;28;20047;-76
2023/02/02 13:29:02;;;;;;;3.38;2.10;;;;;;;;;;5108132;28;20047;-76
2023/02/02 13:31:55;;;;;;;2.25;1.40;;;;;;;;;;5077947;28;20075;-75
2023/02/02 13:34:28;;;;;;;2.92;1.52;;;;;;;;;;5107151;28;20055;-78
2023/02/02 13:37:08;;;;;;;6.13;1.92;;;;;;;;;;5107478;28;20063;-78
2023/02/02 13:40:11;;;;;;;5.70;1.73;;;;;;;;;;5105531;28;20392;-78
2023/02/02 13:43:11;;;;;;;3.17;1.63;;;;;;;;;;5082322;28;20078;-77
2023/02/02 13:46:01;;;;;;;5.97;1.50;;;;;;;;;;5102123;28;20063;-77
2023/02/02 13:49:12;;;;;;;4.20;1.75;;;;;;;;;;5107598;28;20044;-76
2023/02/02 13:52:19;;;;;;;3.42;1.50;;;;;;;;;;5107075;28;20044;-78
2023/02/02 13:55:17;;;;;;;2.53;1.42;;;;;;;;;;5107960;28;20050;-77
2023/02/02 13:58:13;;;;;;;3.88;1.73;;;;;;;;;;5106856;28;20048;-79
2023/02/02 14:00:53;;;;;;;3.10;1.30;;;;;;;;;;5107238;28;20486;-76
2023/02/02 14:03:37;;;;;;;1.85;1.35;;;;;;;;;;5106709;28;20055;-77
2023/02/02 14:06:12;;;;;;;5.07;1.33;;;;;;;;;;5107376;28;20494;-75
2023/02/02 14:08:55;;;;;;;3.50;1.40;;;;;;;;;;5107494;28;20055;-76
2023/02/02 14:11:41;;;;;;;2.35;1.50;;;;;;;;;;5106904;28;20055;-79
2023/02/02 14:14:31;;;;;;;8.30;1.33;;;;;;;;;;5107316;28;20059;-77
2023/02/02 14:17:33;;;;;;;5.05;1.42;;;;;;;;;;5107517;28;20055;-77
2023/02/02 14:20:07;;;;;;;3.53;1.60;;;;;;;;;;5106821;28;20055;-76
2023/02/02 14:22:41;;;;;;;3.30;1.60;;;;;;;;;;5107178;28;20514;-77
2023/02/02 14:25:32;;;;;;;3.38;1.33;;;;;;;;;;5107422;28;20058;-76
2023/02/02 14:28:10;;;;;;;4.45;1.42;;;;;;;;;;5106803;28;20524;-78
2023/02/02 14:30:40;;;;;;;6.30;1.52;;;;;;;;;;5107038;28;20094;-79
2023/02/02 14:33:26;;;;;;;2.60;1.40;;;;;;;;;;5106441;28;20070;-80
2023/02/02 14:36:00;;;;;;;2.35;1.30;;;;;;;;;;5106898;28;20650;-76
2023/02/02 14:38:44;;;;;;;2.30;1.42;;;;;;;;;;5107288;28;20043;-75
2023/02/02 14:43:43;;;;;;;5.13;1.48;;;;;;;;;;5106945;28;20398;-76
2023/02/02 14:44:11;;;;;;;9.00;1.58;;;;;;;;;;5106615;28;20508;-78
2023/02/02 14:46:47;;;;;;;2.08;1.23;;;;;;;;;;5106850;28;20043;-78
2023/02/02 14:49:27;;;;;;;4.80;1.20;;;;;;;;;;5106160;28;20066;-75
2023/02/02 14:52:04;;;;;;;7.25;2.33;;;;;;;;;;5105750;28;20047;-76
2023/02/02 14:54:41;;;;;;;4.05;1.50;;;;;;;;;;5106492;28;20425;-76
2023/02/02 14:57:26;;;;;;;3.05;1.50;;;;;;;;;;5104796;28;20581;-77
2023/02/02 14:59:58;;;;;;;2.65;1.50;;;;;;;;;;5106661;28;20048;-78
2023/02/02 15:02:33;;;;;;;6.57;1.38;;;;;;;;;;5106974;28;20048;-77
2023/02/02 15:05:37;;;;;;;3.22;1.20;;;;;;;;;;5106602;28;20074;-77
2023/02/02 15:08:26;;;;;;;1.98;1.17;;;;;;;;;;5106532;28;20031;-80
2023/02/02 15:11:26;;;;;;;5.60;1.50;;;;;;;;;;5108677;28;20043;-78
2023/02/02 15:13:57;;;;;;;6.18;1.40;;;;;;;;;;5110145;28;20051;-76
2023/02/02 15:16:30;;;;;;;2.17;1.20;;;;;;;;;;5110012;28;20046;-78
2023/02/02 15:19:12;;;;;;;2.38;1.23;;;;;;;;;;5110001;28;20051;-78
2023/02/02 15:21:47;;;;;;;3.70;1.13;;;;;;;;;;5110409;28;20055;-77
2023/02/02 15:24:27;;;;;;;;;;;;;;;;;;5110641;28;20050;-76
2023/02/02 15:27:01;;;;;;;1.75;1.02;;;;;;;;;;5110527;28;20637;-77
2023/02/02 15:29:55;;;;;;;4.70;1.80;;;;;;;;;;5109983;28;20058;-76
2023/02/02 15:32:27;;;;;;;4.68;1.30;;;;;;;;;;5109799;28;20410;-80
2023/02/02 15:35:07;;;;;;;4.50;1.35;;;;;;;;;;5109645;28;20061;-76
2023/02/02 15:37:40;;;;;;;1.92;1.40;;;;;;;;;;5110014;28;20401;-74
2023/02/02 15:40:15;;;;;;;1.42;1.02;;;;;;;;;;5109992;28;20039;-76
2023/02/02 15:42:57;;;;;;;3.33;1.40;;;;;;;;;;5109858;28;20048;-76
2023/02/02 15:45:30;;;;;;;3.17;1.30;;;;;;;;;;5109700;28;20043;-77
2023/02/02 15:48:29;;;;;;;1.63;1.00;;;;;;;;;;5108549;28;20125;-77
2023/02/02 15:51:03;;;;;;;4.70;1.50;;;;;;;;;;5101264;28;20055;-79
2023/02/02 15:53:43;;;;;;;4.43;1.40;;;;;;;;;;5109115;28;20055;-78
2023/02/02 15:56:30;;;;;;;2.50;1.02;;;;;;;;;;5109412;28;20047;-77